FYGA4: White River At Fayetteville, AR

                                SHEF ID:       FYGA4     White River near Fayetteville, A
STATION TYPE: Stream Gauge

PRECIP STAGE RIV-FLOW WTR-TEMP DIS-OXY PH CONDUCT BAT-LOAD
in ft cfs F mg/l su umho/cm volt
Ccp-Rev Ccp-Rev Ccp-Rev Ccp-Rev Ccp-Rev Ccp-Rev Ccp-Rev Ccp-Rev
(America/Chicago)
09/08 00:00 0.00 1.87 33 73.96 6.20 7.78 210 12.73
09/08 01:00 0.00 1.87 33 73.44 5.87 7.75 212 12.65
09/08 02:00 0.00 1.88 34 72.82 5.56 7.73 212 12.65
09/08 03:00 0.00 1.87 33 72.25 5.35 7.70 211 12.65
09/08 04:00 0.00 1.87 33 71.64 5.46 7.68 210 12.57
09/08 05:00 0.00 1.87 33 71.01 5.33 7.67 210 12.57
09/08 06:00 0.00 1.86 32 70.43 5.27 7.66 211 12.49
09/08 07:00 0.00 1.86 32 69.89 5.03 7.64 211 12.49
09/08 08:00 0.00 1.87 33 69.40 4.96 7.64 212 12.41
09/08 09:00 0.00 1.86 32 69.15 5.30 7.64 212 12.97
09/08 10:00 0.00 1.86 32 69.55 5.73 7.69 212 13.60
09/08 11:00 0.00 1.86 32 71.13 7.07 7.78 211 13.84
09/08 12:00 0.00 1.86 32 73.02 7.69 7.88 210 13.60
09/08 13:00 0.00 1.86 32 74.71 8.29 7.97 211 13.53
09/08 14:00 0.00 1.85 31 76.30 8.83 8.05 210 13.60
09/08 15:00 0.00 1.85 31 77.45 9.14 8.11 209 13.44
09/08 16:00 0.00 1.83 29 78.15 9.28 8.18 207 13.37
09/08 17:00 0.00 1.83 29 78.39 9.58 8.20 207 13.29
09/08 18:00 0.00 1.83 29 77.72 8.63 8.18 208 12.97
09/08 19:00 0.00 1.83 29 76.95 7.90 8.13 207 12.89
09/08 20:00 0.00 1.83 29 76.06 7.62 8.05 208 12.81
09/08 21:00 0.00 1.83 29 75.25 6.98 7.96 209 12.81
09/08 22:00 0.00 1.83 29 74.46 6.81 7.88 208 12.73
09/08 23:00 0.00 1.83 29 73.83 6.50 7.84 209 12.73
Data processed at Tue 09Sep2025 04:10 GMT

Parsing this webpage?

Checkout our new Data API! CWMSDataAPI (CDA)

Timeseries IDs (TSIDs)

TSIDs used from left to right in the data table
FAYE.Precip-Inc.Total.1Hour.1Hour.Ccp-Rev
FAYE.Stage.Inst.1Hour.0.Ccp-Rev
FAYE.Flow.Inst.1Hour.0.Ccp-Rev
FAYE.Temp-Water.Inst.1Hour.0.Ccp-Rev
FAYE.Conc-DO.Inst.1Hour.0.Ccp-Rev
FAYE.pH.Inst.1Hour.0.Ccp-Rev
FAYE.Cond-Water.Inst.1Hour.0.Ccp-Rev
FAYE.Volt-Battery Load.Inst.1Hour.0.Ccp-Rev

                            

All information presented herein is the property of the government of the United States of America and may be revised or deleted at any time without prior notice. Dissemination of this information without the expressed written consent of the Public Affairs Office, Tulsa District U.S. Army Corps of Engineers is strictly prohibited. These data are gathered electronically and, as presented, have NOT undergone any form of quality control. These data are NOT guaranteed to be valid or correct.